Time;durP1;ratioP1;P1;durP2;ratioP2;P2;SDS_P1;SDS_P2;PMS_P1;PMS_P2;Temp;Humidity;BMP_temperature;BMP_pressure;BME280_temperature;BME280_humidity;BME280_pressure;Samples;Min_cycle;Max_cycle;Signal;HPM_P1;HPM_P2
2022/08/21 00:02:18;;;;;;;;;5.67;3.67;;;;;;;;4982132;27;45284;-77
2022/08/21 00:04:43;;;;;;;;;4.33;4.33;;;;;;;;4985715;27;45295;-78
2022/08/21 00:07:08;;;;;;;;;3.67;3.00;;;;;;;;4988871;27;45376;-78
2022/08/21 00:09:33;;;;;;;;;5.33;4.00;;;;;;;;4979272;28;45346;-77
2022/08/21 00:11:59;;;;;;;;;3.00;3.00;;;;;;;;4988477;27;45480;-77
2022/08/21 00:14:24;;;;;;;;;6.00;5.00;;;;;;;;4982606;28;45425;-77
2022/08/21 00:16:50;;;;;;;;;5.67;4.00;;;;;;;;4978168;28;45313;-77
2022/08/21 00:19:15;;;;;;;;;3.67;2.67;;;;;;;;4984016;27;45408;-78
2022/08/21 00:21:42;;;;;;;;;4.67;4.67;;;;;;;;4993725;27;45304;-78
2022/08/21 00:24:07;;;;;;;;;4.67;3.67;;;;;;;;4983804;28;45298;-77
2022/08/21 00:26:32;;;;;;;;;4.67;4.67;;;;;;;;4986161;28;45341;-78
2022/08/21 00:28:57;;;;;;;;;6.33;4.33;;;;;;;;4986171;27;45613;-77
2022/08/21 00:31:23;;;;;;;;;3.00;3.00;;;;;;;;4995519;27;45506;-78
2022/08/21 00:33:48;;;;;;;;;4.00;3.67;;;;;;;;5003337;27;45469;-78
2022/08/21 00:36:13;;;;;;;;;5.67;4.00;;;;;;;;5003081;27;45268;-78
2022/08/21 00:38:38;;;;;;;;;4.33;2.67;;;;;;;;4992448;27;45378;-78
2022/08/21 00:41:05;;;;;;;;;4.00;4.00;;;;;;;;4994618;27;45665;-78
2022/08/21 00:43:32;;;;;;;;;3.33;3.33;;;;;;;;4981162;27;46372;-77
2022/08/21 00:45:57;;;;;;;;;3.67;2.00;;;;;;;;4989607;27;45490;-77
2022/08/21 00:48:23;;;;;;;;;3.67;3.67;;;;;;;;4982752;27;46265;-77
2022/08/21 00:50:55;;;;;;;;;5.67;4.00;;;;;;;;4995469;27;45515;-77
2022/08/21 00:53:21;;;;;;;;;4.67;3.67;;;;;;;;4984875;27;46259;-77
2022/08/21 00:55:46;;;;;;;;;4.33;3.67;;;;;;;;4994787;27;45413;-77
2022/08/21 00:58:13;;;;;;;;;3.67;3.67;;;;;;;;4991757;27;45629;-77
2022/08/21 01:00:40;;;;;;;;;6.33;4.00;;;;;;;;4992650;27;45335;-77
2022/08/21 01:03:07;;;;;;;;;3.67;3.67;;;;;;;;4980944;28;46031;-77
2022/08/21 01:05:32;;;;;;;;;7.00;5.67;;;;;;;;4988707;27;45489;-77
2022/08/21 01:07:57;;;;;;;;;4.67;4.00;;;;;;;;4986267;27;45347;-77
2022/08/21 01:10:22;;;;;;;;;5.33;5.00;;;;;;;;4993761;27;45838;-77
2022/08/21 01:12:48;;;;;;;;;3.67;3.67;;;;;;;;4979632;27;45896;-77
2022/08/21 01:15:15;;;;;;;;;5.67;4.67;;;;;;;;4994819;27;45347;-77
2022/08/21 01:17:40;;;;;;;;;4.67;4.00;;;;;;;;4990146;27;45442;-77
2022/08/21 01:20:07;;;;;;;;;6.33;5.67;;;;;;;;4986008;27;45412;-77
2022/08/21 01:22:32;;;;;;;;;6.33;5.00;;;;;;;;4990118;27;47024;-77
2022/08/21 01:24:57;;;;;;;;;6.00;4.67;;;;;;;;4982996;28;45375;-77
2022/08/21 01:27:22;;;;;;;;;4.00;3.67;;;;;;;;4984428;27;45374;-77
2022/08/21 01:29:54;;;;;;;;;3.67;3.67;;;;;;;;4985030;27;45277;-77
2022/08/21 01:32:20;;;;;;;;;4.67;4.67;;;;;;;;4980326;28;46038;-77
2022/08/21 01:34:46;;;;;;;;;6.00;5.67;;;;;;;;5020715;27;45695;-78
2022/08/21 01:37:12;;;;;;;;;5.67;4.67;;;;;;;;4982880;27;45544;-77
2022/08/21 01:39:37;;;;;;;;;4.00;4.00;;;;;;;;4989886;27;45316;-77
2022/08/21 01:42:03;;;;;;;;;5.67;4.67;;;;;;;;4987572;28;46174;-77
2022/08/21 01:44:29;;;;;;;;;4.33;4.33;;;;;;;;4991317;28;45332;-77
2022/08/21 01:46:55;;;;;;;;;5.67;3.33;;;;;;;;4991531;27;45363;-77
2022/08/21 01:49:20;;;;;;;;;4.67;2.67;;;;;;;;4983131;28;45376;-77
2022/08/21 01:51:45;;;;;;;;;7.33;5.67;;;;;;;;4993570;28;45403;-77
2022/08/21 01:54:10;;;;;;;;;4.33;3.67;;;;;;;;4992214;27;45429;-77
2022/08/21 01:56:38;;;;;;;;;8.00;7.00;;;;;;;;4992419;27;45496;-77
2022/08/21 01:59:03;;;;;;;;;5.33;5.00;;;;;;;;4985536;27;45490;-77
2022/08/21 02:01:28;;;;;;;;;6.67;3.33;;;;;;;;4989576;28;45408;-77
2022/08/21 02:03:53;;;;;;;;;5.67;4.67;;;;;;;;4984488;27;45453;-77
2022/08/21 02:06:19;;;;;;;;;8.00;5.00;;;;;;;;4994362;27;45493;-77
2022/08/21 02:08:44;;;;;;;;;5.00;4.00;;;;;;;;4978887;27;45352;-77
2022/08/21 02:11:10;;;;;;;;;3.00;3.00;;;;;;;;4991526;28;45311;-76
2022/08/21 02:13:35;;;;;;;;;5.00;3.67;;;;;;;;4981478;28;45373;-76
2022/08/21 02:16:00;;;;;;;;;7.33;5.33;;;;;;;;4983566;27;45487;-76
2022/08/21 02:18:26;;;;;;;;;5.00;4.00;;;;;;;;4981203;28;45579;-76
2022/08/21 02:20:51;;;;;;;;;8.33;4.33;;;;;;;;4986373;27;45434;-76
2022/08/21 02:23:16;;;;;;;;;6.67;5.00;;;;;;;;4984401;28;45341;-76
2022/08/21 02:25:42;;;;;;;;;4.33;4.33;;;;;;;;4993855;27;45344;-76
2022/08/21 02:28:11;;;;;;;;;4.67;4.67;;;;;;;;4988957;27;47264;-76
2022/08/21 02:30:39;;;;;;;;;7.00;7.00;;;;;;;;4979796;27;45256;-76
2022/08/21 02:33:04;;;;;;;;;5.33;3.67;;;;;;;;4984127;27;46483;-77
2022/08/21 02:35:30;;;;;;;;;4.00;4.00;;;;;;;;5009332;27;45239;-77
2022/08/21 02:37:57;;;;;;;;;4.67;4.67;;;;;;;;4986705;27;45422;-76
2022/08/21 02:40:24;;;;;;;;;5.67;4.67;;;;;;;;4982210;28;45364;-76
2022/08/21 02:42:50;;;;;;;;;5.00;4.00;;;;;;;;4985290;28;45295;-76
2022/08/21 02:45:16;;;;;;;;;5.00;4.00;;;;;;;;4984084;28;45729;-76
2022/08/21 02:47:49;;;;;;;;;4.00;4.00;;;;;;;;4987857;27;45222;-76
2022/08/21 02:50:17;;;;;;;;;7.00;5.33;;;;;;;;4985913;28;45297;-76
2022/08/21 02:52:43;;;;;;;;;7.00;7.00;;;;;;;;4988715;27;45290;-76
2022/08/21 02:55:08;;;;;;;;;4.67;4.67;;;;;;;;4988120;28;45445;-77
2022/08/21 02:57:34;;;;;;;;;4.33;4.33;;;;;;;;4986592;28;45568;-76
2022/08/21 02:59:59;;;;;;;;;11.67;5.00;;;;;;;;4987035;27;45266;-76
2022/08/21 03:02:24;;;;;;;;;5.00;5.00;;;;;;;;4989946;27;45647;-77
2022/08/21 03:04:49;;;;;;;;;5.67;4.67;;;;;;;;4981172;27;45389;-76
2022/08/21 03:07:15;;;;;;;;;4.67;4.33;;;;;;;;4989490;27;45255;-77
2022/08/21 03:09:40;;;;;;;;;4.00;4.00;;;;;;;;4989405;28;47081;-76
2022/08/21 03:12:05;;;;;;;;;7.67;6.67;;;;;;;;4986875;28;45131;-76
2022/08/21 03:14:30;;;;;;;;;4.33;3.67;;;;;;;;4983422;27;45395;-76
2022/08/21 03:16:56;;;;;;;;;8.33;5.00;;;;;;;;4991553;27;46011;-76
2022/08/21 03:19:21;;;;;;;;;7.00;5.00;;;;;;;;4985144;27;46422;-76
2022/08/21 03:21:46;;;;;;;;;5.00;5.00;;;;;;;;4991510;28;45314;-76
2022/08/21 03:24:11;;;;;;;;;8.67;5.33;;;;;;;;4985001;27;45677;-74
2022/08/21 03:26:37;;;;;;;;;7.00;6.00;;;;;;;;4992900;28;46556;-74
2022/08/21 03:29:02;;;;;;;;;7.33;4.33;;;;;;;;4987085;28;46108;-74
2022/08/21 03:31:30;;;;;;;;;5.67;5.67;;;;;;;;4980476;28;45679;-74
2022/08/21 03:33:56;;;;;;;;;6.67;4.33;;;;;;;;5004905;27;45201;-74
2022/08/21 03:36:21;;;;;;;;;3.33;3.33;;;;;;;;4994329;27;45254;-74
2022/08/21 03:38:46;;;;;;;;;5.00;5.00;;;;;;;;4983730;27;45469;-74
2022/08/21 03:41:12;;;;;;;;;7.00;3.67;;;;;;;;4986095;28;46654;-74
2022/08/21 03:43:38;;;;;;;;;6.00;6.00;;;;;;;;4982464;27;45532;-74
2022/08/21 03:46:04;;;;;;;;;7.00;5.33;;;;;;;;4988193;27;45527;-74
2022/08/21 03:48:29;;;;;;;;;7.00;5.00;;;;;;;;4982477;27;46230;-75
2022/08/21 03:50:55;;;;;;;;;5.67;4.33;;;;;;;;4991075;27;45484;-75
2022/08/21 03:53:20;;;;;;;;;7.00;6.33;;;;;;;;4984788;27;45436;-75
2022/08/21 03:55:46;;;;;;;;;3.67;3.67;;;;;;;;4989356;28;45209;-76
2022/08/21 03:58:11;;;;;;;;;5.67;5.67;;;;;;;;4984949;28;46623;-75
2022/08/21 04:00:37;;;;;;;;;6.33;6.00;;;;;;;;4989827;28;45351;-75
2022/08/21 04:03:02;;;;;;;;;5.67;5.67;;;;;;;;4978999;27;45537;-75
2022/08/21 04:05:27;;;;;;;;;7.00;5.33;;;;;;;;4982055;27;45347;-75
2022/08/21 04:07:57;;;;;;;;;10.00;6.67;;;;;;;;4981307;27;46461;-75
2022/08/21 04:10:24;;;;;;;;;6.00;6.00;;;;;;;;4981859;28;45270;-75
2022/08/21 04:12:49;;;;;;;;;7.33;7.00;;;;;;;;4980750;28;45376;-75
2022/08/21 04:15:14;;;;;;;;;5.00;5.00;;;;;;;;4983143;28;45377;-75
2022/08/21 04:17:39;;;;;;;;;7.00;6.00;;;;;;;;4979784;28;46212;-75
2022/08/21 04:20:05;;;;;;;;;5.00;4.00;;;;;;;;4984254;28;45226;-75
2022/08/21 04:22:30;;;;;;;;;7.67;7.67;;;;;;;;4983615;28;45283;-75
2022/08/21 04:24:55;;;;;;;;;6.33;4.33;;;;;;;;4987533;27;45535;-75
2022/08/21 04:27:21;;;;;;;;;6.00;5.00;;;;;;;;4988000;27;46807;-75
2022/08/21 04:29:46;;;;;;;;;6.67;5.67;;;;;;;;4987241;28;45256;-76
2022/08/21 04:32:11;;;;;;;;;5.00;5.00;;;;;;;;4992206;28;45527;-74
2022/08/21 04:34:36;;;;;;;;;7.00;7.00;;;;;;;;5010131;27;46164;-75
2022/08/21 04:37:02;;;;;;;;;4.00;4.00;;;;;;;;4979674;27;45373;-75
2022/08/21 04:39:27;;;;;;;;;6.67;5.33;;;;;;;;4981220;27;45388;-75
2022/08/21 04:41:52;;;;;;;;;5.00;5.00;;;;;;;;4982192;27;45239;-75
2022/08/21 04:44:18;;;;;;;;;11.33;7.33;;;;;;;;4979865;27;45708;-74
2022/08/21 04:46:43;;;;;;;;;8.00;5.67;;;;;;;;4984250;28;45339;-76
2022/08/21 04:49:08;;;;;;;;;8.33;6.67;;;;;;;;4987671;28;45321;-76
2022/08/21 04:51:35;;;;;;;;;7.67;7.00;;;;;;;;4987291;28;45576;-76
2022/08/21 04:54:06;;;;;;;;;6.67;6.00;;;;;;;;4988195;28;45439;-76
2022/08/21 04:56:34;;;;;;;;;5.00;5.00;;;;;;;;4994969;28;46796;-76
2022/08/21 04:59:03;;;;;;;;;9.00;6.00;;;;;;;;4985617;27;45424;-76
2022/08/21 05:01:30;;;;;;;;;7.00;5.00;;;;;;;;4990308;27;45236;-75
2022/08/21 05:03:58;;;;;;;;;6.33;5.00;;;;;;;;4983131;27;45644;-75
2022/08/21 05:06:23;;;;;;;;;4.33;4.00;;;;;;;;4991223;27;45296;-75
2022/08/21 05:08:51;;;;;;;;;6.00;5.00;;;;;;;;4983741;27;45359;-75
2022/08/21 05:11:17;;;;;;;;;5.67;5.00;;;;;;;;4991083;28;45426;-75
2022/08/21 05:13:42;;;;;;;;;8.00;5.00;;;;;;;;4981822;28;45500;-75
2022/08/21 05:16:07;;;;;;;;;9.00;6.00;;;;;;;;4984720;27;46506;-75
2022/08/21 05:18:33;;;;;;;;;4.33;4.33;;;;;;;;4985996;27;45348;-75
2022/08/21 05:20:58;;;;;;;;;6.67;5.00;;;;;;;;4987038;27;45315;-75
2022/08/21 05:23:24;;;;;;;;;9.00;7.00;;;;;;;;4986361;27;45534;-75
2022/08/21 05:25:51;;;;;;;;;5.67;5.33;;;;;;;;4988790;27;45389;-75
2022/08/21 05:28:17;;;;;;;;;6.67;5.00;;;;;;;;4988143;27;45535;-75
2022/08/21 05:30:43;;;;;;;;;6.33;6.33;;;;;;;;4991463;28;45404;-75
2022/08/21 05:33:08;;;;;;;;;7.33;5.00;;;;;;;;4990403;27;45492;-75
2022/08/21 05:35:33;;;;;;;;;6.33;6.33;;;;;;;;5018428;27;45954;-75
2022/08/21 05:37:59;;;;;;;;;6.33;5.67;;;;;;;;4991291;27;45411;-75
2022/08/21 05:40:25;;;;;;;;;5.00;5.00;;;;;;;;4994721;27;45326;-75
2022/08/21 05:42:51;;;;;;;;;7.67;5.67;;;;;;;;4987573;28;45355;-75
2022/08/21 05:45:16;;;;;;;;;6.00;6.00;;;;;;;;4987188;28;46931;-75
2022/08/21 05:47:41;;;;;;;;;11.67;8.00;;;;;;;;4990857;28;46037;-75
2022/08/21 05:50:07;;;;;;;;;5.33;5.33;;;;;;;;4987719;28;45314;-76
2022/08/21 05:52:32;;;;;;;;;7.00;5.67;;;;;;;;4990622;27;45201;-76
2022/08/21 05:54:57;;;;;;;;;5.00;4.67;;;;;;;;4989065;28;45339;-75
2022/08/21 05:57:23;;;;;;;;;7.00;5.33;;;;;;;;4992964;27;45377;-75
2022/08/21 05:59:48;;;;;;;;;7.67;7.67;;;;;;;;4989158;27;45247;-76
2022/08/21 06:02:14;;;;;;;;;9.00;7.67;;;;;;;;4982910;27;45219;-75
2022/08/21 06:04:39;;;;;;;;;5.67;5.67;;;;;;;;4979196;27;45254;-76
2022/08/21 06:07:05;;;;;;;;;8.00;7.00;;;;;;;;4983697;27;46026;-75
2022/08/21 06:09:32;;;;;;;;;8.33;7.00;;;;;;;;4983624;27;45421;-75
2022/08/21 06:11:57;;;;;;;;;8.00;8.00;;;;;;;;4990571;27;45330;-75
2022/08/21 06:14:23;;;;;;;;;8.00;8.00;;;;;;;;4981270;28;45343;-75
2022/08/21 06:16:48;;;;;;;;;9.00;6.00;;;;;;;;4994153;27;45433;-76
2022/08/21 06:19:13;;;;;;;;;6.33;5.00;;;;;;;;4986962;28;45346;-75
2022/08/21 06:21:38;;;;;;;;;6.67;6.67;;;;;;;;4979996;27;45421;-75
2022/08/21 06:24:04;;;;;;;;;10.00;6.00;;;;;;;;4987381;28;45377;-75
2022/08/21 06:26:30;;;;;;;;;6.67;6.00;;;;;;;;4981948;28;45319;-75
2022/08/21 06:28:55;;;;;;;;;10.67;6.67;;;;;;;;4985904;28;45399;-75
2022/08/21 06:31:21;;;;;;;;;5.00;5.00;;;;;;;;4985597;27;45349;-76
2022/08/21 06:33:47;;;;;;;;;12.67;8.33;;;;;;;;5000551;27;47464;-76
2022/08/21 06:36:13;;;;;;;;;9.00;8.00;;;;;;;;5005172;27;45315;-76
2022/08/21 06:38:38;;;;;;;;;11.33;9.67;;;;;;;;4978812;28;45424;-76
2022/08/21 06:41:04;;;;;;;;;11.33;9.00;;;;;;;;4993759;27;45490;-76
2022/08/21 06:43:30;;;;;;;;;10.67;10.00;;;;;;;;4982286;28;46505;-75
2022/08/21 06:45:55;;;;;;;;;9.33;8.33;;;;;;;;4992055;28;45274;-76
2022/08/21 06:48:21;;;;;;;;;10.00;8.33;;;;;;;;4985685;27;45292;-77
2022/08/21 06:50:46;;;;;;;;;11.33;9.33;;;;;;;;4993633;28;45509;-76
2022/08/21 06:53:13;;;;;;;;;8.33;8.33;;;;;;;;4984427;27;45417;-75
2022/08/21 06:55:39;;;;;;;;;8.33;7.33;;;;;;;;4979739;27;45303;-75
2022/08/21 06:58:04;;;;;;;;;9.00;9.00;;;;;;;;4979734;27;45419;-74
2022/08/21 07:00:30;;;;;;;;;6.67;6.00;;;;;;;;4981598;28;45276;-75
2022/08/21 07:02:55;;;;;;;;;8.00;6.67;;;;;;;;4984239;27;45457;-73
2022/08/21 07:05:21;;;;;;;;;8.33;7.33;;;;;;;;4983393;27;45316;-74
2022/08/21 07:07:46;;;;;;;;;12.00;7.33;;;;;;;;4986223;28;45221;-75
2022/08/21 07:10:12;;;;;;;;;8.33;7.00;;;;;;;;4985049;27;45225;-74
2022/08/21 07:12:37;;;;;;;;;9.00;7.00;;;;;;;;4991316;27;46254;-73
2022/08/21 07:15:02;;;;;;;;;9.00;9.00;;;;;;;;4978078;27;45284;-74
2022/08/21 07:17:28;;;;;;;;;10.00;8.33;;;;;;;;4983468;28;45441;-73
2022/08/21 07:19:53;;;;;;;;;12.67;7.67;;;;;;;;4984999;27;45455;-73
2022/08/21 07:22:20;;;;;;;;;10.33;9.33;;;;;;;;4986236;27;45219;-73
2022/08/21 07:24:45;;;;;;;;;9.33;9.33;;;;;;;;4989334;27;45846;-74
2022/08/21 07:27:10;;;;;;;;;12.33;9.33;;;;;;;;4989105;28;45603;-74
2022/08/21 07:29:35;;;;;;;;;9.33;8.00;;;;;;;;4984672;28;45569;-74
2022/08/21 07:32:00;;;;;;;;;8.00;7.00;;;;;;;;4988025;27;48252;-74
2022/08/21 07:34:26;;;;;;;;;10.33;8.00;;;;;;;;5015159;27;45470;-74
2022/08/21 07:36:51;;;;;;;;;9.33;6.33;;;;;;;;4991227;28;45378;-74
2022/08/21 07:39:17;;;;;;;;;9.67;9.33;;;;;;;;4987118;27;45489;-74
2022/08/21 07:41:42;;;;;;;;;8.33;8.33;;;;;;;;4993358;27;46419;-74
2022/08/21 07:44:07;;;;;;;;;8.33;7.33;;;;;;;;4979500;28;45507;-74
2022/08/21 07:46:32;;;;;;;;;8.67;8.67;;;;;;;;4991032;28;45292;-75
2022/08/21 07:48:57;;;;;;;;;11.67;9.00;;;;;;;;4981134;28;45339;-75
2022/08/21 07:51:25;;;;;;;;;8.00;6.67;;;;;;;;4993698;28;45254;-75
2022/08/21 07:53:51;;;;;;;;;8.00;6.33;;;;;;;;4983400;27;45457;-76
2022/08/21 07:56:16;;;;;;;;;11.67;8.67;;;;;;;;4996307;28;45335;-73
2022/08/21 07:58:41;;;;;;;;;9.67;7.67;;;;;;;;4979937;27;45559;-75
2022/08/21 08:01:06;;;;;;;;;11.00;10.00;;;;;;;;4976855;28;47735;-74
2022/08/21 08:03:32;;;;;;;;;9.67;8.67;;;;;;;;4979352;28;47458;-75
2022/08/21 08:05:58;;;;;;;;;13.33;9.67;;;;;;;;4984008;27;45192;-75
2022/08/21 08:08:23;;;;;;;;;8.00;8.00;;;;;;;;4989552;27;45448;-74
2022/08/21 08:10:50;;;;;;;;;10.67;9.00;;;;;;;;4982501;27;45827;-75
2022/08/21 08:13:16;;;;;;;;;7.00;6.00;;;;;;;;4980983;27;45339;-75
2022/08/21 08:15:41;;;;;;;;;10.00;8.33;;;;;;;;4986250;27;45489;-74
2022/08/21 08:18:06;;;;;;;;;8.00;7.00;;;;;;;;4985632;28;47067;-70
2022/08/21 08:20:32;;;;;;;;;5.25;5.25;;;;;;;;4995550;28;46185;-72
2022/08/21 08:22:58;;;;;;;;;7.00;6.00;;;;;;;;4990479;27;45507;-74
2022/08/21 08:25:23;;;;;;;;;9.00;9.00;;;;;;;;4991973;27;45368;-73
2022/08/21 08:27:49;;;;;;;;;11.67;7.33;;;;;;;;4985972;28;45397;-71
2022/08/21 08:30:15;;;;;;;;;10.25;8.25;;;;;;;;4989129;27;46359;-72
2022/08/21 08:32:41;;;;;;;;;7.00;7.00;;;;;;;;4986734;28;45408;-73
2022/08/21 08:35:07;;;;;;;;;7.50;7.50;;;;;;;;5015247;27;45363;-73
2022/08/21 08:37:33;;;;;;;;;12.33;9.00;;;;;;;;4980908;28;45326;-73
2022/08/21 08:39:58;;;;;;;;;9.00;6.25;;;;;;;;4984922;27;46121;-73
2022/08/21 08:42:30;;;;;;;;;8.25;6.25;;;;;;;;4984888;28;45283;-73
2022/08/21 08:44:58;;;;;;;;;9.50;7.50;;;;;;;;4984756;28;45608;-73
2022/08/21 08:47:24;;;;;;;;;7.25;7.25;;;;;;;;4987301;27;45528;-72
2022/08/21 08:50:08;;;;;;;;;5.75;5.75;;;;;;;;4985470;27;46733;-73
2022/08/21 08:52:35;;;;;;;;;7.75;7.75;;;;;;;;4991513;27;45521;-73
2022/08/21 08:55:07;;;;;;;;;9.75;7.00;;;;;;;;4987554;28;45638;-73
2022/08/21 08:57:33;;;;;;;;;10.75;7.75;;;;;;;;4989300;27;45363;-73
2022/08/21 09:00:00;;;;;;;;;7.00;6.25;;;;;;;;4980368;27;45250;-72
2022/08/21 09:02:27;;;;;;;;;6.25;6.25;;;;;;;;4989511;27;45490;-73
2022/08/21 09:04:53;;;;;;;;;8.00;7.00;;;;;;;;4981930;27;45359;-73
2022/08/21 09:07:24;;;;;;;;;7.00;5.75;;;;;;;;4991990;28;45715;-73
2022/08/21 09:10:09;;;;;;;;;7.50;7.00;;;;;;;;4987877;27;45472;-73
2022/08/21 09:12:57;;;;;;;;;11.75;10.75;;;;;;;;4983518;27;45365;-73
2022/08/21 09:15:25;;;;;;;;;7.50;5.75;;;;;;;;4981053;28;45535;-73
2022/08/21 09:18:09;;;;;;;;;8.00;8.00;;;;;;;;4984558;27;45707;-73
2022/08/21 09:20:46;;;;;;;;;8.50;7.75;;;;;;;;4998249;27;47617;-73
2022/08/21 09:23:31;;;;;;;;;6.00;6.00;;;;;;;;4984175;28;45199;-73
2022/08/21 09:26:06;;;;;;;;;9.25;5.75;;;;;;;;4986473;27;45632;-73
2022/08/21 09:28:33;;;;;;;;;6.00;4.50;;;;;;;;4989831;27;46200;-73
2022/08/21 09:31:02;;;;;;;;;6.25;5.00;;;;;;;;4987679;27;46337;-73
2022/08/21 09:33:28;;;;;;;;;5.25;5.00;;;;;;;;4990475;28;45425;-73
2022/08/21 09:35:54;;;;;;;;;6.50;5.00;;;;;;;;4996926;27;45363;-73
2022/08/21 09:38:34;;;;;;;;;6.00;3.50;;;;;;;;4988448;27;45445;-74
2022/08/21 09:41:04;;;;;;;;;6.00;4.25;;;;;;;;4983549;27;46117;-74
2022/08/21 09:43:30;;;;;;;;;6.25;4.50;;;;;;;;4984334;27;45307;-72
2022/08/21 09:46:22;;;;;;;;;5.75;5.75;;;;;;;;4993577;27;45486;-72
2022/08/21 09:48:52;;;;;;;;;5.75;4.75;;;;;;;;4983225;28;45795;-72
2022/08/21 09:51:19;;;;;;;;;7.25;6.00;;;;;;;;4984626;27;45402;-72
2022/08/21 09:53:46;;;;;;;;;3.40;3.40;;;;;;;;4983201;27;45378;-73
2022/08/21 09:59:12;;;;;;;;;5.50;4.00;;;;;;;;4980059;27;45314;-73
2022/08/21 10:01:41;;;;;;;;;5.25;5.00;;;;;;;;4982690;27;47643;-73
2022/08/21 10:04:07;;;;;;;;;5.60;4.40;;;;;;;;4985834;28;45745;-74
2022/08/21 10:06:34;;;;;;;;;6.75;5.75;;;;;;;;4987588;28;45603;-73
2022/08/21 10:09:08;;;;;;;;;3.75;3.75;;;;;;;;4986640;27;45445;-73
2022/08/21 10:11:34;;;;;;;;;7.50;4.25;;;;;;;;4985529;27;46310;-73
2022/08/21 10:14:06;;;;;;;;;3.60;3.00;;;;;;;;4987486;27;45385;-73
2022/08/21 10:16:44;;;;;;;;;8.75;8.75;;;;;;;;4989599;28;45929;-72
2022/08/21 10:19:21;;;;;;;;;8.50;5.25;;;;;;;;4990302;27;45568;-72
2022/08/21 10:22:05;;;;;;;;;3.60;3.20;;;;;;;;4994414;27;46270;-72
2022/08/21 10:24:36;;;;;;;;;4.40;4.40;;;;;;;;4990326;27;45299;-72
2022/08/21 10:27:01;;;;;;;;;2.80;2.80;;;;;;;;4991742;27;45443;-72
2022/08/21 10:29:30;;;;;;;;;3.50;3.50;;;;;;;;4984294;27;45983;-72
2022/08/21 10:32:09;;;;;;;;;3.50;2.50;;;;;;;;4986967;27;45432;-72
2022/08/21 10:34:48;;;;;;;;;4.00;4.00;;;;;;;;4999415;27;45439;-72
2022/08/21 10:37:31;;;;;;;;;4.50;3.50;;;;;;;;4989418;28;45378;-73
2022/08/21 10:40:08;;;;;;;;;2.75;1.50;;;;;;;;4978973;28;45657;-72
2022/08/21 10:42:33;;;;;;;;;2.75;2.75;;;;;;;;4984982;28;45775;-72
2022/08/21 10:45:01;;;;;;;;;4.25;3.50;;;;;;;;4990283;28;45343;-72
2022/08/21 10:47:32;;;;;;;;;3.25;3.25;;;;;;;;4992247;28;45304;-72
2022/08/21 10:50:17;;;;;;;;;4.00;4.00;;;;;;;;4996066;27;45527;-72
2022/08/21 10:52:45;;;;;;;;;5.00;4.00;;;;;;;;4992178;28;45398;-72
2022/08/21 10:55:19;;;;;;;;;3.80;3.80;;;;;;;;4996295;28;45449;-72
2022/08/21 10:57:54;;;;;;;;;3.25;3.25;;;;;;;;4992093;27;45478;-72
2022/08/21 11:00:21;;;;;;;;;5.25;5.00;;;;;;;;4991850;27;45298;-72
2022/08/21 11:03:09;;;;;;;;;4.50;4.00;;;;;;;;4991691;27;46136;-72
2022/08/21 11:05:35;;;;;;;;;4.20;3.20;;;;;;;;4992575;28;45550;-72
2022/08/21 11:08:06;;;;;;;;;4.50;4.25;;;;;;;;4989998;27;45586;-73
2022/08/21 11:10:49;;;;;;;;;4.00;4.00;;;;;;;;4990752;27;45807;-73
2022/08/21 11:13:19;;;;;;;;;5.75;4.25;;;;;;;;4981132;28;45536;-72
2022/08/21 11:16:04;;;;;;;;;4.80;4.00;;;;;;;;4992768;27;45208;-72
2022/08/21 11:18:37;;;;;;;;;4.25;3.75;;;;;;;;4984924;28;45524;-73
2022/08/21 11:21:17;;;;;;;;;4.00;4.00;;;;;;;;4991743;27;45376;-73
2022/08/21 11:24:21;;;;;;;;;3.00;3.00;;;;;;;;4994781;27;45675;-73
2022/08/21 11:26:50;;;;;;;;;4.40;4.40;;;;;;;;4953314;28;45451;-73
2022/08/21 11:29:17;;;;;;;;;4.00;3.80;;;;;;;;4951131;28;45490;-74
2022/08/21 11:32:02;;;;;;;;;3.00;3.00;;;;;;;;4971802;27;45530;-73
2022/08/21 11:34:40;;;;;;;;;7.75;6.25;;;;;;;;5015018;27;45316;-73
2022/08/21 11:37:08;;;;;;;;;27.75;25.75;;;;;;;;4988440;28;45430;-73
2022/08/21 11:39:33;;;;;;;;;2.00;0.20;;;;;;;;4981476;27;45488;-73
2022/08/21 11:42:04;;;;;;;;;4.00;2.25;;;;;;;;4989261;28;45867;-73
2022/08/21 11:44:34;;;;;;;;;4.00;1.20;;;;;;;;4983603;27;45473;-74
2022/08/21 11:47:02;;;;;;;;;3.00;3.00;;;;;;;;4983302;28;46052;-74
2022/08/21 11:49:30;;;;;;;;;3.20;3.20;;;;;;;;4989230;28;45360;-73
2022/08/21 11:51:59;;;;;;;;;4.00;1.80;;;;;;;;4984312;28;45805;-73
2022/08/21 11:54:28;;;;;;;;;3.60;1.80;;;;;;;;4986033;27;45322;-73
2022/08/21 11:57:01;;;;;;;;;4.20;3.20;;;;;;;;4992216;27;45521;-74
2022/08/21 11:59:47;;;;;;;;;1.40;1.40;;;;;;;;4988590;27;45466;-74
2022/08/21 12:02:14;;;;;;;;;2.40;1.40;;;;;;;;4977617;28;45295;-74
2022/08/21 12:04:53;;;;;;;;;3.20;2.20;;;;;;;;4977132;27;46974;-73
2022/08/21 12:07:30;;;;;;;;;2.20;2.20;;;;;;;;4977338;28;45362;-74
2022/08/21 12:09:56;;;;;;;;;2.80;1.40;;;;;;;;4977961;28;45342;-74
2022/08/21 12:12:24;;;;;;;;;1.20;1.20;;;;;;;;4978829;27;45330;-73
2022/08/21 12:14:51;;;;;;;;;1.00;1.00;;;;;;;;4985587;27;47806;-74
2022/08/21 12:17:20;;;;;;;;;3.00;2.20;;;;;;;;4984819;27;48090;-73
2022/08/21 12:19:56;;;;;;;;;4.00;2.80;;;;;;;;4985656;27;45378;-73
2022/08/21 12:22:21;;;;;;;;;3.00;1.60;;;;;;;;4986260;27;45944;-74
2022/08/21 12:24:50;;;;;;;;;6.25;3.00;;;;;;;;4993084;27;45276;-74
2022/08/21 12:27:19;;;;;;;;;3.40;3.40;;;;;;;;4992889;27;45418;-74
2022/08/21 12:29:46;;;;;;;;;3.80;3.20;;;;;;;;4986672;27;45340;-75
2022/08/21 12:32:14;;;;;;;;;6.00;6.00;;;;;;;;4987233;27;46132;-74
2022/08/21 12:34:46;;;;;;;;;0.60;0.60;;;;;;;;5012089;27;45438;-76
2022/08/21 12:37:11;;;;;;;;;2.00;2.00;;;;;;;;4993898;27;45237;-73
2022/08/21 12:39:38;;;;;;;;;10.75;7.25;;;;;;;;4985694;27;45452;-74
2022/08/21 12:42:22;;;;;;;;;1.20;1.20;;;;;;;;4993998;28;45988;-73
2022/08/21 12:44:53;;;;;;;;;3.00;3.00;;;;;;;;4995013;27;47982;-74
2022/08/21 12:47:26;;;;;;;;;3.40;2.60;;;;;;;;4988993;27;45325;-74
2022/08/21 12:49:57;;;;;;;;;1.00;1.00;;;;;;;;4988111;27;45481;-75
2022/08/21 12:52:24;;;;;;;;;1.40;1.20;;;;;;;;4987855;27;45657;-74
2022/08/21 12:54:49;;;;;;;;;0.80;0.80;;;;;;;;4977083;28;46413;-75
2022/08/21 12:57:20;;;;;;;;;2.50;0.50;;;;;;;;4990597;27;45690;-74
2022/08/21 12:59:45;;;;;;;;;1.00;1.00;;;;;;;;4983966;27;45443;-75
2022/08/21 13:02:19;;;;;;;;;0.25;0.25;;;;;;;;4979975;27;45350;-75
2022/08/21 13:04:46;;;;;;;;;2.00;0.00;;;;;;;;4980968;28;45516;-75
2022/08/21 13:07:13;;;;;;;;;0.20;0.20;;;;;;;;4981395;27;45576;-75
2022/08/21 13:09:43;;;;;;;;;0.40;0.00;;;;;;;;4990008;27;45575;-75
2022/08/21 13:12:08;;;;;;;;;1.00;1.00;;;;;;;;4992461;27;45410;-75
2022/08/21 13:14:35;;;;;;;;;0.00;0.00;;;;;;;;4991908;27;48248;-75
2022/08/21 13:17:03;;;;;;;;;0.20;0.20;;;;;;;;4993170;27;45395;-75
2022/08/21 13:19:29;;;;;;;;;1.40;0.00;;;;;;;;4981856;28;45749;-75
2022/08/21 13:21:55;;;;;;;;;0.20;0.20;;;;;;;;4986326;27;45806;-75
2022/08/21 13:24:20;;;;;;;;;1.50;0.00;;;;;;;;4985912;28;45686;-75
2022/08/21 13:26:46;;;;;;;;;1.00;0.00;;;;;;;;4994138;27;46115;-75
2022/08/21 13:29:12;;;;;;;;;0.00;0.00;;;;;;;;4987892;28;45424;-75
2022/08/21 13:31:42;;;;;;;;;0.00;0.00;;;;;;;;4992156;27;45406;-74
2022/08/21 13:34:10;;;;;;;;;0.00;0.00;;;;;;;;4986253;27;45462;-75
2022/08/21 13:36:36;;;;;;;;;0.00;0.00;;;;;;;;4982143;28;45339;-74
2022/08/21 13:39:03;;;;;;;;;0.40;0.40;;;;;;;;4984544;27;45452;-74
2022/08/21 13:41:30;;;;;;;;;0.00;0.00;;;;;;;;4985301;27;45469;-74
2022/08/21 13:44:13;;;;;;;;;0.00;0.00;;;;;;;;4982659;27;46988;-75
2022/08/21 13:46:38;;;;;;;;;0.20;0.20;;;;;;;;4988191;27;45334;-74
2022/08/21 13:49:04;;;;;;;;;0.25;0.00;;;;;;;;4988355;27;45481;-75
2022/08/21 13:51:31;;;;;;;;;2.00;0.00;;;;;;;;4996577;27;45505;-75
2022/08/21 13:53:56;;;;;;;;;0.00;0.00;;;;;;;;4987204;27;45390;-75
2022/08/21 13:56:29;;;;;;;;;0.00;0.00;;;;;;;;4991782;28;45215;-75
2022/08/21 13:58:55;;;;;;;;;0.00;0.00;;;;;;;;4988491;27;45407;-75
2022/08/21 14:01:27;;;;;;;;;0.00;0.00;;;;;;;;4987176;28;45480;-75
2022/08/21 14:03:55;;;;;;;;;0.00;0.00;;;;;;;;4981526;27;45939;-75
2022/08/21 14:06:22;;;;;;;;;0.20;0.20;;;;;;;;4988584;27;45345;-76
2022/08/21 14:08:53;;;;;;;;;1.80;0.40;;;;;;;;4983698;27;45801;-75
2022/08/21 14:11:18;;;;;;;;;0.00;0.00;;;;;;;;4990097;27;45452;-76
2022/08/21 14:13:46;;;;;;;;;0.00;0.00;;;;;;;;4987123;28;45634;-76
2022/08/21 14:16:11;;;;;;;;;0.00;0.00;;;;;;;;4991888;28;45353;-76
2022/08/21 14:18:44;;;;;;;;;0.00;0.00;;;;;;;;4985639;27;45579;-75
2022/08/21 14:21:09;;;;;;;;;0.00;0.00;;;;;;;;4994419;27;46014;-76
2022/08/21 14:23:35;;;;;;;;;1.25;0.00;;;;;;;;4988595;27;46064;-75
2022/08/21 14:26:02;;;;;;;;;0.00;0.00;;;;;;;;4979538;27;45315;-74
2022/08/21 14:28:31;;;;;;;;;0.00;0.00;;;;;;;;4989149;28;45926;-75
2022/08/21 14:30:57;;;;;;;;;0.80;0.80;;;;;;;;4989572;27;45576;-75
2022/08/21 14:33:30;;;;;;;;;0.00;0.00;;;;;;;;4984930;27;45597;-74
2022/08/21 14:35:55;;;;;;;;;0.60;0.00;;;;;;;;4996176;27;45329;-73
2022/08/21 14:38:22;;;;;;;;;0.00;0.00;;;;;;;;4989915;27;45917;-75
2022/08/21 14:40:49;;;;;;;;;0.00;0.00;;;;;;;;4992341;27;45359;-75
2022/08/21 14:43:14;;;;;;;;;0.20;0.00;;;;;;;;4990360;27;46093;-75
2022/08/21 14:45:40;;;;;;;;;0.00;0.00;;;;;;;;4996185;28;45307;-76
2022/08/21 14:48:06;;;;;;;;;0.50;0.50;;;;;;;;4991768;27;45272;-75